Time;durP1;ratioP1;P1;durP2;ratioP2;P2;SDS_P1;SDS_P2;PMS_P1;PMS_P2;Temp;Humidity;BMP_temperature;BMP_pressure;BME280_temperature;BME280_humidity;BME280_pressure;Samples;Min_cycle;Max_cycle;Signal;HPM_P1;HPM_P2
2023/02/05 00:01:04;;;;;;;1.70;1.60;;;;;;;;;;5054047;28;20205;-83
2023/02/05 00:03:30;;;;;;;1.73;1.63;;;;;;;;;;5066993;28;20206;-83
2023/02/05 00:05:57;;;;;;;2.17;1.90;;;;;;;;;;5065782;28;20596;-83
2023/02/05 00:08:26;;;;;;;1.73;1.63;;;;;;;;;;5068528;28;20238;-83
2023/02/05 00:10:54;;;;;;;2.03;1.93;;;;;;;;;;5053535;28;20209;-83
2023/02/05 00:13:21;;;;;;;2.00;1.80;;;;;;;;;;5053883;28;20213;-84
2023/02/05 00:15:47;;;;;;;2.27;2.00;;;;;;;;;;5065621;28;20201;-84
2023/02/05 00:18:14;;;;;;;1.83;1.73;;;;;;;;;;5054901;28;20214;-82
2023/02/05 00:20:41;;;;;;;2.50;2.30;;;;;;;;;;5065812;28;20205;-83
2023/02/05 00:23:08;;;;;;;2.27;2.07;;;;;;;;;;5068259;28;20213;-82
2023/02/05 00:25:35;;;;;;;2.30;2.10;;;;;;;;;;5065530;28;20765;-82
2023/02/05 00:28:03;;;;;;;2.77;2.37;;;;;;;;;;5054054;28;20631;-84
2023/02/05 00:30:30;;;;;;;2.33;2.10;;;;;;;;;;5053760;28;20669;-83
2023/02/05 00:32:57;;;;;;;2.23;2.03;;;;;;;;;;5058883;28;20577;-84
2023/02/05 00:35:23;;;;;;;3.93;2.30;;;;;;;;;;5060090;28;20263;-85
2023/02/05 00:37:50;;;;;;;2.37;2.17;;;;;;;;;;5066296;28;20205;-84
2023/02/05 00:40:17;;;;;;;2.50;2.10;;;;;;;;;;5066616;28;20621;-84
2023/02/05 00:42:44;;;;;;;2.20;2.10;;;;;;;;;;5053367;28;20210;-83
2023/02/05 00:45:12;;;;;;;2.23;2.03;;;;;;;;;;5053265;28;20675;-85
2023/02/05 00:47:39;;;;;;;2.17;1.97;;;;;;;;;;5060451;28;20232;-84
2023/02/05 00:50:06;;;;;;;2.30;2.10;;;;;;;;;;5073088;28;20205;-83
2023/02/05 00:52:33;;;;;;;2.47;2.20;;;;;;;;;;5065966;28;20202;-84
2023/02/05 00:54:59;;;;;;;2.80;2.40;;;;;;;;;;5067098;28;20212;-83
2023/02/05 00:57:26;;;;;;;2.63;2.37;;;;;;;;;;5065370;28;20209;-84
2023/02/05 00:59:53;;;;;;;2.63;2.43;;;;;;;;;;5067072;28;20223;-84
2023/02/05 01:02:23;;;;;;;2.27;2.07;;;;;;;;;;5065247;28;20260;-83
2023/02/05 01:04:51;;;;;;;3.17;2.60;;;;;;;;;;5054585;28;20234;-87
2023/02/05 01:07:18;;;;;;;2.33;2.10;;;;;;;;;;5063977;28;20214;-83
2023/02/05 01:09:45;;;;;;;2.53;2.33;;;;;;;;;;5052844;28;20206;-83
2023/02/05 01:12:12;;;;;;;2.43;2.23;;;;;;;;;;5061985;28;20593;-84
2023/02/05 01:14:39;;;;;;;2.77;2.57;;;;;;;;;;5070508;28;20202;-83
2023/02/05 01:17:06;;;;;;;4.47;2.80;;;;;;;;;;5063344;28;20202;-83
2023/02/05 01:19:34;;;;;;;2.37;2.17;;;;;;;;;;5066009;28;20232;-83
2023/02/05 01:22:01;;;;;;;2.57;2.37;;;;;;;;;;5052326;28;20217;-84
2023/02/05 01:24:28;;;;;;;2.67;2.47;;;;;;;;;;5052629;28;20209;-83
2023/02/05 01:26:57;;;;;;;3.43;2.37;;;;;;;;;;5052054;28;20248;-84
2023/02/05 01:29:24;;;;;;;3.27;2.93;;;;;;;;;;5055473;28;20238;-84
2023/02/05 01:31:51;;;;;;;2.80;2.60;;;;;;;;;;5072221;28;20205;-85
2023/02/05 01:34:18;;;;;;;2.70;2.50;;;;;;;;;;5068165;28;20198;-83
2023/02/05 01:36:46;;;;;;;2.60;2.40;;;;;;;;;;5062672;28;20216;-84
2023/02/05 01:39:13;;;;;;;2.63;2.37;;;;;;;;;;5059168;28;20221;-84
2023/02/05 01:41:41;;;;;;;2.37;2.20;;;;;;;;;;5060237;28;20689;-84
2023/02/05 01:44:10;;;;;;;2.10;2.00;;;;;;;;;;5051995;28;20206;-84
2023/02/05 01:46:38;;;;;;;2.80;2.07;;;;;;;;;;5051605;28;20194;-83
2023/02/05 01:49:06;;;;;;;2.40;2.10;;;;;;;;;;5051770;28;20306;-84
2023/02/05 01:51:33;;;;;;;2.53;2.00;;;;;;;;;;5051900;28;20269;-83
2023/02/05 01:54:02;;;;;;;1.70;1.60;;;;;;;;;;5051826;28;20206;-84
2023/02/05 01:56:31;;;;;;;1.40;1.30;;;;;;;;;;5065274;28;20196;-84
2023/02/05 01:59:00;;;;;;;1.37;1.27;;;;;;;;;;5064617;28;20658;-84
2023/02/05 02:01:27;;;;;;;1.47;1.23;;;;;;;;;;5064906;28;20204;-84
2023/02/05 02:03:55;;;;;;;1.10;1.10;;;;;;;;;;5051836;28;20300;-84
2023/02/05 02:06:22;;;;;;;0.73;0.73;;;;;;;;;;5065119;28;20217;-84
2023/02/05 02:08:49;;;;;;;1.10;1.00;;;;;;;;;;5051317;28;20233;-84
2023/02/05 02:11:18;;;;;;;1.10;1.10;;;;;;;;;;5064980;28;20235;-84
2023/02/05 02:13:46;;;;;;;0.80;0.80;;;;;;;;;;5051417;28;20204;-85
2023/02/05 02:16:16;;;;;;;0.50;0.50;;;;;;;;;;5051270;28;20255;-84
2023/02/05 02:18:43;;;;;;;0.90;0.90;;;;;;;;;;5060987;28;20247;-84
2023/02/05 02:21:25;;;;;;;0.60;0.60;;;;;;;;;;5054367;28;20202;-84
2023/02/05 02:24:25;;;;;;;0.77;0.77;;;;;;;;;;5063429;28;20266;-84
2023/02/05 02:27:15;;;;;;;3.00;0.80;;;;;;;;;;5050889;28;20266;-84
2023/02/05 02:29:47;;;;;;;0.50;0.50;;;;;;;;;;5051413;28;20312;-84
2023/02/05 02:32:17;;;;;;;0.70;0.70;;;;;;;;;;5064663;28;20209;-84
2023/02/05 02:34:47;;;;;;;0.60;0.60;;;;;;;;;;5051086;28;20213;-84
2023/02/05 02:37:17;;;;;;;0.70;0.70;;;;;;;;;;5053026;28;20289;-84
2023/02/05 02:39:48;;;;;;;0.80;0.80;;;;;;;;;;5061677;28;20267;-84
2023/02/05 02:42:17;;;;;;;0.60;0.60;;;;;;;;;;5064404;28;20206;-84
2023/02/05 02:44:49;;;;;;;0.80;0.77;;;;;;;;;;5051286;28;20205;-84
2023/02/05 02:47:18;;;;;;;0.70;0.70;;;;;;;;;;5055949;28;20205;-85
2023/02/05 02:49:49;;;;;;;0.70;0.70;;;;;;;;;;5070877;28;20306;-84
2023/02/05 02:52:19;;;;;;;0.77;0.77;;;;;;;;;;5057317;28;20212;-84
2023/02/05 02:54:47;;;;;;;0.87;0.87;;;;;;;;;;5058283;28;20202;-84
2023/02/05 02:57:15;;;;;;;0.70;0.70;;;;;;;;;;5034513;28;20211;-84
2023/02/05 02:59:45;;;;;;;0.80;0.80;;;;;;;;;;5049033;28;20202;-84
2023/02/05 03:02:14;;;;;;;0.70;0.70;;;;;;;;;;5062608;28;20209;-84
2023/02/05 03:04:44;;;;;;;1.00;1.00;;;;;;;;;;5059267;28;20634;-85
2023/02/05 03:07:16;;;;;;;1.00;1.00;;;;;;;;;;5054479;28;20205;-84
2023/02/05 03:09:47;;;;;;;0.90;0.90;;;;;;;;;;5054280;28;20677;-84
2023/02/05 03:12:13;;;;;;;1.00;1.00;;;;;;;;;;5054220;28;20673;-85
2023/02/05 03:14:40;;;;;;;1.30;1.20;;;;;;;;;;5057970;28;20205;-84
2023/02/05 03:17:08;;;;;;;0.90;0.90;;;;;;;;;;5063967;28;20202;-85
2023/02/05 03:19:35;;;;;;;1.20;1.10;;;;;;;;;;5054271;28;20205;-84
2023/02/05 03:22:05;;;;;;;0.80;0.80;;;;;;;;;;5064852;28;20296;-85
2023/02/05 03:24:32;;;;;;;0.80;0.80;;;;;;;;;;5060794;28;20205;-84
2023/02/05 03:26:59;;;;;;;0.90;0.90;;;;;;;;;;5062632;28;20267;-84
2023/02/05 03:29:28;;;;;;;0.77;0.77;;;;;;;;;;5067688;28;20283;-85
2023/02/05 03:32:01;;;;;;;0.90;0.90;;;;;;;;;;5054678;28;20232;-85
2023/02/05 03:34:39;;;;;;;0.90;0.90;;;;;;;;;;5054412;28;20213;-84
2023/02/05 03:37:11;;;;;;;0.80;0.80;;;;;;;;;;5070192;28;20216;-85
2023/02/05 03:39:46;;;;;;;0.90;0.90;;;;;;;;;;5069966;28;20580;-85
2023/02/05 03:42:22;;;;;;;1.03;0.93;;;;;;;;;;5058325;28;20271;-84
2023/02/05 03:45:19;;;;;;;2.00;1.23;;;;;;;;;;5069265;28;20645;-84
2023/02/05 03:48:01;;;;;;;1.20;1.20;;;;;;;;;;5068336;28;20201;-84
2023/02/05 03:50:31;;;;;;;1.33;1.30;;;;;;;;;;5060919;28;20290;-84
2023/02/05 03:53:04;;;;;;;1.50;1.40;;;;;;;;;;5057940;28;20202;-85
2023/02/05 03:55:34;;;;;;;1.13;1.13;;;;;;;;;;5057675;28;20216;-84
2023/02/05 03:58:03;;;;;;;1.30;1.20;;;;;;;;;;5057956;28;20243;-84
2023/02/05 04:00:30;;;;;;;1.27;1.20;;;;;;;;;;5057535;28;20202;-84
2023/02/05 04:02:57;;;;;;;1.50;1.40;;;;;;;;;;5070192;28;20212;-84
2023/02/05 04:05:24;;;;;;;1.60;1.50;;;;;;;;;;5056844;28;20241;-84
2023/02/05 04:07:52;;;;;;;2.53;1.50;;;;;;;;;;5070956;28;20201;-84
2023/02/05 04:10:19;;;;;;;1.60;1.50;;;;;;;;;;5078919;28;20703;-84
2023/02/05 04:12:46;;;;;;;1.17;1.13;;;;;;;;;;5065991;28;20209;-84
2023/02/05 04:15:13;;;;;;;1.57;1.47;;;;;;;;;;5059430;28;20205;-84
2023/02/05 04:17:40;;;;;;;1.77;1.67;;;;;;;;;;5071755;28;20760;-85
2023/02/05 04:20:08;;;;;;;1.77;1.67;;;;;;;;;;5065871;28;20201;-85
2023/02/05 04:22:35;;;;;;;2.37;2.17;;;;;;;;;;5064080;28;20596;-84
2023/02/05 04:25:03;;;;;;;2.93;1.93;;;;;;;;;;5059084;28;20206;-84
2023/02/05 04:27:30;;;;;;;1.80;1.70;;;;;;;;;;5060348;28;20212;-86
2023/02/05 04:29:57;;;;;;;2.27;2.07;;;;;;;;;;5083463;28;20236;-86
2023/02/05 04:32:25;;;;;;;1.73;1.63;;;;;;;;;;5065747;28;20213;-86
2023/02/05 04:34:52;;;;;;;1.77;1.67;;;;;;;;;;5071182;28;20212;-85
2023/02/05 04:37:18;;;;;;;2.70;2.40;;;;;;;;;;5070569;28;20213;-86
2023/02/05 04:39:47;;;;;;;1.90;1.80;;;;;;;;;;5082447;28;20236;-85
2023/02/05 04:42:15;;;;;;;2.37;2.17;;;;;;;;;;5070284;28;20276;-85
2023/02/05 04:44:42;;;;;;;2.07;1.93;;;;;;;;;;5074720;28;20194;-85
2023/02/05 04:47:09;;;;;;;1.63;1.53;;;;;;;;;;5067350;28;20587;-85
2023/02/05 04:49:35;;;;;;;2.07;1.90;;;;;;;;;;5081611;28;20235;-85
2023/02/05 04:52:02;;;;;;;2.23;2.03;;;;;;;;;;5066892;28;20213;-85
2023/02/05 04:54:30;;;;;;;2.70;2.30;;;;;;;;;;5064704;28;20209;-85
2023/02/05 04:56:57;;;;;;;3.37;2.37;;;;;;;;;;5064114;28;20198;-86
2023/02/05 04:59:25;;;;;;;2.63;2.20;;;;;;;;;;5059016;28;20221;-86
2023/02/05 05:01:52;;;;;;;3.00;2.53;;;;;;;;;;5057112;28;20198;-85
2023/02/05 05:04:19;;;;;;;3.00;2.70;;;;;;;;;;5055289;28;20226;-85
2023/02/05 05:06:45;;;;;;;2.97;2.60;;;;;;;;;;5067762;28;20228;-85
2023/02/05 05:09:12;;;;;;;2.10;1.90;;;;;;;;;;5064143;28;20248;-86
2023/02/05 05:11:40;;;;;;;2.60;2.40;;;;;;;;;;5054815;28;20630;-86
2023/02/05 05:14:07;;;;;;;2.37;2.17;;;;;;;;;;5066259;28;20205;-85
2023/02/05 05:16:38;;;;;;;3.30;2.43;;;;;;;;;;5068326;28;20228;-85
2023/02/05 05:19:05;;;;;;;2.90;2.63;;;;;;;;;;5062623;28;20244;-84
2023/02/05 05:21:31;;;;;;;2.93;2.50;;;;;;;;;;5066038;28;20228;-86
2023/02/05 05:23:58;;;;;;;2.33;2.13;;;;;;;;;;5062747;28;20258;-86
2023/02/05 05:26:25;;;;;;;2.57;2.20;;;;;;;;;;5056592;28;20218;-86
2023/02/05 05:28:54;;;;;;;2.77;2.57;;;;;;;;;;5052140;28;20292;-85
2023/02/05 05:31:23;;;;;;;2.50;2.30;;;;;;;;;;5056393;28;20285;-85
2023/02/05 05:33:51;;;;;;;3.73;2.37;;;;;;;;;;5052598;28;20213;-85
2023/02/05 05:36:19;;;;;;;2.73;2.50;;;;;;;;;;5065663;28;20666;-86
2023/02/05 05:38:45;;;;;;;3.47;2.87;;;;;;;;;;5065139;28;20205;-86
2023/02/05 05:44:03;;;;;;;2.23;2.03;;;;;;;;;;5054947;28;20703;-85
2023/02/05 05:46:30;;;;;;;2.43;2.23;;;;;;;;;;5056892;28;20217;-86
2023/02/05 05:49:00;;;;;;;2.40;2.20;;;;;;;;;;5046586;28;20217;-85
2023/02/05 05:51:28;;;;;;;2.00;1.90;;;;;;;;;;5060354;28;20664;-86
2023/02/05 05:53:55;;;;;;;2.67;2.47;;;;;;;;;;5070363;28;20270;-86
2023/02/05 05:56:22;;;;;;;2.67;2.10;;;;;;;;;;5060099;28;20209;-83
2023/02/05 05:58:49;;;;;;;2.50;2.30;;;;;;;;;;5070968;28;20698;-82
2023/02/05 06:01:19;;;;;;;2.77;2.53;;;;;;;;;;5071472;28;20629;-83
2023/02/05 06:03:46;;;;;;;2.77;2.57;;;;;;;;;;5056036;28;20766;-83
2023/02/05 06:06:20;;;;;;;1.93;1.73;;;;;;;;;;5051663;28;20288;-84
2023/02/05 06:08:46;;;;;;;2.87;2.43;;;;;;;;;;5054075;28;20594;-83
2023/02/05 06:11:13;;;;;;;3.03;2.77;;;;;;;;;;5071390;28;20213;-83
2023/02/05 06:13:40;;;;;;;2.67;2.03;;;;;;;;;;5067326;28;20598;-83
2023/02/05 06:16:07;;;;;;;2.10;2.00;;;;;;;;;;5048708;28;20225;-83
2023/02/05 06:18:34;;;;;;;5.63;4.57;;;;;;;;;;5053692;28;20206;-83
2023/02/05 06:21:02;;;;;;;8.33;4.80;;;;;;;;;;5044129;28;20214;-83
2023/02/05 06:23:30;;;;;;;16.03;10.30;;;;;;;;;;5047755;28;20677;-83
2023/02/05 06:25:57;;;;;;;26.10;13.77;;;;;;;;;;5053324;28;20205;-84
2023/02/05 06:28:24;;;;;;;17.90;8.37;;;;;;;;;;5071553;28;20205;-83
2023/02/05 06:30:50;;;;;;;2.63;2.43;;;;;;;;;;5055022;28;20708;-83
2023/02/05 06:33:17;;;;;;;4.17;3.33;;;;;;;;;;5060267;28;20205;-83
2023/02/05 06:35:44;;;;;;;4.97;3.93;;;;;;;;;;5054949;28;20202;-83
2023/02/05 06:38:10;;;;;;;3.87;3.20;;;;;;;;;;5051043;28;20209;-83
2023/02/05 06:40:39;;;;;;;4.43;3.00;;;;;;;;;;5053860;28;20744;-83
2023/02/05 06:43:05;;;;;;;6.20;5.17;;;;;;;;;;5071281;28;20212;-83
2023/02/05 06:45:32;;;;;;;7.43;4.70;;;;;;;;;;5053915;28;20221;-83
2023/02/05 06:48:00;;;;;;;13.43;6.97;;;;;;;;;;5061135;28;20201;-84
2023/02/05 06:50:27;;;;;;;28.47;12.43;;;;;;;;;;5053772;28;20218;-84
2023/02/05 06:52:53;;;;;;;22.97;11.97;;;;;;;;;;5051407;28;20221;-83
2023/02/05 06:55:23;;;;;;;19.10;8.37;;;;;;;;;;5054375;28;20260;-83
2023/02/05 06:57:51;;;;;;;5.97;4.83;;;;;;;;;;5062937;28;20647;-83
2023/02/05 07:00:19;;;;;;;4.23;3.13;;;;;;;;;;5051882;28;20198;-83
2023/02/05 07:02:45;;;;;;;4.43;3.97;;;;;;;;;;5062953;28;20201;-83
2023/02/05 07:05:12;;;;;;;3.30;2.53;;;;;;;;;;5059228;28;20225;-82
2023/02/05 07:07:40;;;;;;;3.27;2.97;;;;;;;;;;5062993;28;20212;-83
2023/02/05 07:10:10;;;;;;;5.07;4.03;;;;;;;;;;5050742;28;20283;-84
2023/02/05 07:12:36;;;;;;;8.90;4.13;;;;;;;;;;5049927;28;20206;-83
2023/02/05 07:15:06;;;;;;;5.67;4.33;;;;;;;;;;5054022;28;20201;-84
2023/02/05 07:17:33;;;;;;;4.67;4.13;;;;;;;;;;5051634;28;20260;-83
2023/02/05 07:20:00;;;;;;;6.53;3.90;;;;;;;;;;5056032;28;20213;-84
2023/02/05 07:22:26;;;;;;;9.97;5.53;;;;;;;;;;5050213;28;20198;-85
2023/02/05 07:24:54;;;;;;;4.77;3.70;;;;;;;;;;5050738;28;21141;-86
2023/02/05 07:27:21;;;;;;;3.00;2.70;;;;;;;;;;5050821;28;20213;-83
2023/02/05 07:29:47;;;;;;;4.53;3.47;;;;;;;;;;5050024;28;20225;-83
2023/02/05 07:32:16;;;;;;;5.03;3.80;;;;;;;;;;5050638;28;20747;-83
2023/02/05 07:34:42;;;;;;;5.20;4.10;;;;;;;;;;5070055;28;20250;-82
2023/02/05 07:37:11;;;;;;;3.63;3.33;;;;;;;;;;5061267;28;20233;-83
2023/02/05 07:39:37;;;;;;;5.83;3.70;;;;;;;;;;5062794;28;20210;-82
2023/02/05 07:42:04;;;;;;;4.50;3.53;;;;;;;;;;5052098;28;20194;-82
2023/02/05 07:44:31;;;;;;;2.87;2.53;;;;;;;;;;5054154;28;20213;-84
2023/02/05 07:46:58;;;;;;;4.73;4.27;;;;;;;;;;5053798;28;20201;-83
2023/02/05 07:49:26;;;;;;;4.40;3.87;;;;;;;;;;5062301;28;20229;-83
2023/02/05 07:51:53;;;;;;;2.40;2.20;;;;;;;;;;5059013;28;20214;-83
2023/02/05 07:54:20;;;;;;;4.73;4.13;;;;;;;;;;5054274;28;20210;-83
2023/02/05 07:56:47;;;;;;;3.03;2.63;;;;;;;;;;5053708;28;20649;-83
2023/02/05 07:59:13;;;;;;;3.37;3.07;;;;;;;;;;5058526;28;20198;-83
2023/02/05 08:01:40;;;;;;;3.23;2.87;;;;;;;;;;5068922;28;20205;-81
2023/02/05 08:04:08;;;;;;;3.17;2.87;;;;;;;;;;5055800;28;20205;-82
2023/02/05 08:06:39;;;;;;;3.00;2.73;;;;;;;;;;5057498;28;20201;-83
2023/02/05 08:09:06;;;;;;;3.20;2.87;;;;;;;;;;5055700;28;20198;-83
2023/02/05 08:11:32;;;;;;;3.73;2.93;;;;;;;;;;5064521;28;20236;-80
2023/02/05 08:14:01;;;;;;;3.57;2.50;;;;;;;;;;5067153;28;20216;-85
2023/02/05 08:16:27;;;;;;;3.50;3.00;;;;;;;;;;5063292;28;20201;-82
2023/02/05 08:18:54;;;;;;;2.80;2.60;;;;;;;;;;5057068;28;20255;-82
2023/02/05 08:21:22;;;;;;;2.47;1.90;;;;;;;;;;5063804;28;20224;-81
2023/02/05 08:23:50;;;;;;;2.33;2.10;;;;;;;;;;5056622;28;20698;-81
2023/02/05 08:26:17;;;;;;;2.37;2.17;;;;;;;;;;5057521;28;20259;-82
2023/02/05 08:28:44;;;;;;;2.60;2.40;;;;;;;;;;5073510;28;20209;-82
2023/02/05 08:31:12;;;;;;;2.50;1.93;;;;;;;;;;5059468;28;20225;-81
2023/02/05 08:33:39;;;;;;;2.23;1.93;;;;;;;;;;5061317;28;20209;-81
2023/02/05 08:36:07;;;;;;;2.33;2.13;;;;;;;;;;5053391;28;20213;-82
2023/02/05 08:38:34;;;;;;;2.23;2.07;;;;;;;;;;5053177;28;20259;-81
2023/02/05 08:41:11;;;;;;;2.27;2.07;;;;;;;;;;5053324;28;20316;-82
2023/02/05 08:43:39;;;;;;;2.67;2.47;;;;;;;;;;5053277;28;20225;-81
2023/02/05 08:46:06;;;;;;;2.30;2.10;;;;;;;;;;5060600;28;20205;-81
2023/02/05 08:48:33;;;;;;;1.60;1.50;;;;;;;;;;5058366;28;20205;-81
2023/02/05 08:51:00;;;;;;;2.47;1.87;;;;;;;;;;5061033;28;20225;-83
2023/02/05 08:53:27;;;;;;;3.67;2.27;;;;;;;;;;5058494;28;20205;-80
2023/02/05 08:55:57;;;;;;;3.17;2.30;;;;;;;;;;5056639;28;20648;-80
2023/02/05 08:58:26;;;;;;;3.03;2.53;;;;;;;;;;5055316;28;20270;-80
2023/02/05 09:00:53;;;;;;;2.43;1.87;;;;;;;;;;5055426;28;20623;-80
2023/02/05 09:03:22;;;;;;;2.13;1.93;;;;;;;;;;5055328;28;20696;-80
2023/02/05 09:05:48;;;;;;;3.47;3.07;;;;;;;;;;5062013;28;20234;-80
2023/02/05 09:08:16;;;;;;;2.33;2.13;;;;;;;;;;5069218;28;20602;-80
2023/02/05 09:10:44;;;;;;;1.87;1.77;;;;;;;;;;5071899;28;20232;-80
2023/02/05 09:13:11;;;;;;;1.73;1.63;;;;;;;;;;5058913;28;20334;-79
2023/02/05 09:15:43;;;;;;;2.03;1.93;;;;;;;;;;5072212;28;20205;-78
2023/02/05 09:18:09;;;;;;;2.27;2.07;;;;;;;;;;5058415;28;20197;-79
2023/02/05 09:20:40;;;;;;;1.70;1.60;;;;;;;;;;5059859;28;20210;-77
2023/02/05 09:23:10;;;;;;;1.47;1.37;;;;;;;;;;5056509;28;20590;-78
2023/02/05 09:25:37;;;;;;;2.40;1.70;;;;;;;;;;5071527;28;20760;-77
2023/02/05 09:28:05;;;;;;;2.30;2.20;;;;;;;;;;5071133;28;20201;-77
2023/02/05 09:30:33;;;;;;;1.70;1.60;;;;;;;;;;5058206;28;20226;-78
2023/02/05 09:33:01;;;;;;;2.40;2.30;;;;;;;;;;5045796;28;20202;-80
2023/02/05 09:35:28;;;;;;;2.13;1.93;;;;;;;;;;5071151;28;20719;-78
2023/02/05 09:37:54;;;;;;;3.93;2.93;;;;;;;;;;5071536;28;20205;-77
2023/02/05 09:40:23;;;;;;;1.83;1.70;;;;;;;;;;5071136;28;20208;-78
2023/02/05 09:42:59;;;;;;;1.80;1.70;;;;;;;;;;5071389;28;20224;-79
2023/02/05 09:45:35;;;;;;;1.80;1.70;;;;;;;;;;5071109;28;20208;-78
2023/02/05 09:48:12;;;;;;;1.67;1.50;;;;;;;;;;5071443;28;20205;-80
2023/02/05 09:50:40;;;;;;;1.80;1.70;;;;;;;;;;5070224;28;20228;-80
2023/02/05 09:53:13;;;;;;;2.10;1.60;;;;;;;;;;5070709;28;20759;-80
2023/02/05 09:55:43;;;;;;;1.97;1.87;;;;;;;;;;5038331;28;20205;-80
2023/02/05 09:58:15;;;;;;;2.97;2.13;;;;;;;;;;5052374;28;20209;-80
2023/02/05 10:00:46;;;;;;;2.07;1.97;;;;;;;;;;5052651;28;20197;-80
2023/02/05 10:03:22;;;;;;;2.37;1.73;;;;;;;;;;5048460;28;20197;-81
2023/02/05 10:06:10;;;;;;;3.07;2.27;;;;;;;;;;5065317;28;20224;-81
2023/02/05 10:08:43;;;;;;;1.83;1.70;;;;;;;;;;5057435;28;20201;-81
2023/02/05 10:11:17;;;;;;;2.07;1.90;;;;;;;;;;5061915;28;20213;-81
2023/02/05 10:13:47;;;;;;;1.50;1.40;;;;;;;;;;5057320;28;20202;-81
2023/02/05 10:16:52;;;;;;;1.87;1.77;;;;;;;;;;5070643;28;20266;-81
2023/02/05 10:19:40;;;;;;;3.07;2.40;;;;;;;;;;5002845;28;20208;-81
2023/02/05 10:22:16;;;;;;;1.60;1.50;;;;;;;;;;5001336;28;20210;-81
2023/02/05 10:24:58;;;;;;;2.73;2.47;;;;;;;;;;5029109;28;20201;-81
2023/02/05 10:27:32;;;;;;;2.50;2.20;;;;;;;;;;5064167;28;20246;-81
2023/02/05 10:30:05;;;;;;;2.20;2.00;;;;;;;;;;5059794;28;20632;-81
2023/02/05 10:32:39;;;;;;;4.20;3.83;;;;;;;;;;5070006;28;20213;-82
2023/02/05 10:35:18;;;;;;;2.60;2.13;;;;;;;;;;5053557;28;20197;-82
2023/02/05 10:37:49;;;;;;;2.87;2.53;;;;;;;;;;5064369;28;20193;-81
2023/02/05 10:40:25;;;;;;;3.03;2.73;;;;;;;;;;5069268;28;20282;-81
2023/02/05 10:42:56;;;;;;;1.93;1.83;;;;;;;;;;5069726;28;20192;-82
2023/02/05 10:45:27;;;;;;;2.20;2.00;;;;;;;;;;5056497;28;20212;-82
2023/02/05 10:48:03;;;;;;;2.03;1.70;;;;;;;;;;5053999;28;20587;-82
2023/02/05 10:50:44;;;;;;;2.63;2.43;;;;;;;;;;5038913;28;20221;-81
2023/02/05 10:53:11;;;;;;;2.50;2.30;;;;;;;;;;5054325;28;20204;-81
2023/02/05 10:55:40;;;;;;;2.10;1.90;;;;;;;;;;5058808;28;20704;-81
2023/02/05 10:58:24;;;;;;;6.17;3.47;;;;;;;;;;5055057;28;20707;-82
2023/02/05 11:00:51;;;;;;;4.63;2.87;;;;;;;;;;5056768;28;20202;-81
2023/02/05 11:03:18;;;;;;;2.20;2.00;;;;;;;;;;5050423;28;20248;-82
2023/02/05 11:05:46;;;;;;;3.37;2.80;;;;;;;;;;5050303;28;20236;-81
2023/02/05 11:08:32;;;;;;;3.00;2.10;;;;;;;;;;5058617;28;20287;-81
2023/02/05 11:10:59;;;;;;;1.50;1.40;;;;;;;;;;5058888;28;20221;-81
2023/02/05 11:13:28;;;;;;;2.37;2.23;;;;;;;;;;5057491;28;20766;-81
2023/02/05 11:15:59;;;;;;;8.77;5.10;;;;;;;;;;5037755;28;20198;-82
2023/02/05 11:18:28;;;;;;;3.97;2.60;;;;;;;;;;5055525;28;20206;-81
2023/02/05 11:20:58;;;;;;;17.73;10.57;;;;;;;;;;5065631;28;20282;-81
2023/02/05 11:23:26;;;;;;;10.23;6.80;;;;;;;;;;5069729;28;20572;-81
2023/02/05 11:25:55;;;;;;;8.80;6.10;;;;;;;;;;5074445;28;20587;-81
2023/02/05 11:28:24;;;;;;;3.77;3.33;;;;;;;;;;5060604;28;20209;-81
2023/02/05 11:30:51;;;;;;;6.53;5.20;;;;;;;;;;5064104;28;20249;-81
2023/02/05 11:33:27;;;;;;;2.70;2.50;;;;;;;;;;5054036;28;20293;-81
2023/02/05 11:35:57;;;;;;;7.50;5.23;;;;;;;;;;5054183;28;20201;-81
2023/02/05 11:38:29;;;;;;;3.87;3.43;;;;;;;;;;5067313;28;20622;-82
2023/02/05 11:40:58;;;;;;;4.13;2.73;;;;;;;;;;5054200;28;20205;-81
2023/02/05 11:43:28;;;;;;;2.77;2.20;;;;;;;;;;5048025;28;20263;-81
2023/02/05 11:45:56;;;;;;;2.70;2.30;;;;;;;;;;5060146;28;20279;-82
2023/02/05 11:48:31;;;;;;;3.77;3.43;;;;;;;;;;5073464;28;20208;-81
2023/02/05 11:51:00;;;;;;;3.80;2.70;;;;;;;;;;5055734;28;20244;-81
2023/02/05 11:53:27;;;;;;;7.10;5.23;;;;;;;;;;5052993;28;20205;-81
2023/02/05 11:55:56;;;;;;;5.50;3.83;;;;;;;;;;5057352;28;21109;-81
2023/02/05 11:58:26;;;;;;;7.43;6.63;;;;;;;;;;5053130;28;20205;-82
2023/02/05 12:00:56;;;;;;;3.30;3.00;;;;;;;;;;5071227;28;20201;-81
2023/02/05 12:03:26;;;;;;;5.70;4.30;;;;;;;;;;5073521;28;20201;-81
2023/02/05 12:06:01;;;;;;;5.47;3.97;;;;;;;;;;5068227;28;20782;-81
2023/02/05 12:08:35;;;;;;;3.27;2.83;;;;;;;;;;5066835;28;20208;-81
2023/02/05 12:11:17;;;;;;;3.70;3.10;;;;;;;;;;5047320;28;20270;-81
2023/02/05 12:13:51;;;;;;;3.60;3.30;;;;;;;;;;5072810;28;20205;-81
2023/02/05 12:16:28;;;;;;;3.53;3.13;;;;;;;;;;5063354;28;20198;-81
2023/02/05 12:19:01;;;;;;;3.40;3.10;;;;;;;;;;5071350;28;20212;-82
2023/02/05 12:21:33;;;;;;;2.30;2.10;;;;;;;;;;5073413;28;20197;-80
2023/02/05 12:24:16;;;;;;;4.23;3.77;;;;;;;;;;5059810;28;20201;-80
2023/02/05 12:26:45;;;;;;;5.17;3.80;;;;;;;;;;5060059;28;20734;-82
2023/02/05 12:29:28;;;;;;;3.23;2.67;;;;;;;;;;5063129;28;20225;-82
2023/02/05 12:32:03;;;;;;;2.30;2.10;;;;;;;;;;5058220;28;20237;-82
2023/02/05 12:34:40;;;;;;;5.60;4.53;;;;;;;;;;5060318;28;20255;-82
2023/02/05 12:37:24;;;;;;;140.07;75.00;;;;;;;;;;5040971;28;20198;-85
2023/02/05 12:39:56;;;;;;;19.73;15.87;;;;;;;;;;5054683;28;20201;-81
2023/02/05 12:42:30;;;;;;;2.70;2.50;;;;;;;;;;5058391;28;20204;-80
2023/02/05 12:45:35;;;;;;;2.73;2.53;;;;;;;;;;5066065;28;20201;-81
2023/02/05 12:48:15;;;;;;;3.00;2.60;;;;;;;;;;5050453;28;20662;-81
2023/02/05 12:50:54;;;;;;;3.60;3.30;;;;;;;;;;5065644;28;20204;-81
2023/02/05 12:53:45;;;;;;;3.53;3.03;;;;;;;;;;5052708;28;20305;-81
2023/02/05 12:56:37;;;;;;;12.67;7.70;;;;;;;;;;5067238;28;20201;-81
2023/02/05 12:59:10;;;;;;;3.87;3.47;;;;;;;;;;5056430;28;20201;-81
2023/02/05 13:01:40;;;;;;;1.90;1.80;;;;;;;;;;5061748;28;20204;-81
2023/02/05 13:04:17;;;;;;;2.00;1.90;;;;;;;;;;5061081;28;20197;-81
2023/02/05 13:06:49;;;;;;;4.00;2.53;;;;;;;;;;5056152;28;20197;-81
2023/02/05 13:09:18;;;;;;;2.77;2.47;;;;;;;;;;5061695;28;20197;-81
2023/02/05 13:11:51;;;;;;;2.33;2.00;;;;;;;;;;5059695;28;20222;-81
2023/02/05 13:14:22;;;;;;;2.23;2.03;;;;;;;;;;5057277;28;20197;-81
2023/02/05 13:16:51;;;;;;;2.53;2.23;;;;;;;;;;5052057;28;20206;-80
2023/02/05 13:19:25;;;;;;;2.00;1.90;;;;;;;;;;5052509;28;20205;-81
2023/02/05 13:30:18;;;;;;;3.17;2.33;;;;;;;;;;5069872;28;20207;-81
2023/02/05 13:32:48;;;;;;;2.00;1.90;;;;;;;;;;5057370;28;20233;-81
2023/02/05 13:35:16;;;;;;;2.80;2.40;;;;;;;;;;5061051;28;20205;-81
2023/02/05 13:37:57;;;;;;;3.07;2.00;;;;;;;;;;5054721;28;20676;-81
2023/02/05 13:40:44;;;;;;;2.17;1.97;;;;;;;;;;5055484;28;20217;-80
2023/02/05 13:43:43;;;;;;;2.10;1.90;;;;;;;;;;5057060;28;20204;-80
2023/02/05 13:46:31;;;;;;;2.50;2.00;;;;;;;;;;5064269;28;20209;-80
2023/02/05 13:49:27;;;;;;;2.13;1.73;;;;;;;;;;5064256;28;20205;-80
2023/02/05 13:52:08;;;;;;;2.27;2.07;;;;;;;;;;5050353;28;20310;-79
2023/02/05 13:55:07;;;;;;;1.70;1.60;;;;;;;;;;5059020;28;20201;-82
2023/02/05 13:58:18;;;;;;;1.70;1.60;;;;;;;;;;5050666;28;20214;-79
2023/02/05 14:00:52;;;;;;;2.17;1.83;;;;;;;;;;5047730;28;20206;-82
2023/02/05 14:03:33;;;;;;;2.20;2.00;;;;;;;;;;5067093;28;20374;-80
2023/02/05 14:06:24;;;;;;;1.93;1.83;;;;;;;;;;5058548;28;20236;-80
2023/02/05 14:08:58;;;;;;;1.87;1.73;;;;;;;;;;5049784;28;20205;-79
2023/02/05 14:11:25;;;;;;;3.20;2.90;;;;;;;;;;5068350;28;20807;-82
2023/02/05 14:14:17;;;;;;;1.67;1.57;;;;;;;;;;5065585;28;20576;-81
2023/02/05 14:16:48;;;;;;;2.70;2.50;;;;;;;;;;5045927;28;20206;-81
2023/02/05 14:19:20;;;;;;;3.30;3.00;;;;;;;;;;5058430;28;20224;-81
2023/02/05 14:22:02;;;;;;;3.33;2.60;;;;;;;;;;5068744;28;20205;-82
2023/02/05 14:24:44;;;;;;;2.00;1.90;;;;;;;;;;5051166;28;20225;-80
2023/02/05 14:27:48;;;;;;;2.60;2.27;;;;;;;;;;5062161;28;20287;-81
2023/02/05 14:30:50;;;;;;;2.33;2.13;;;;;;;;;;5056771;28;20201;-81
2023/02/05 14:33:40;;;;;;;5.67;4.70;;;;;;;;;;5049271;28;20307;-81
2023/02/05 14:36:39;;;;;;;2.03;1.83;;;;;;;;;;5070059;28;20565;-81
2023/02/05 14:39:19;;;;;;;2.37;2.20;;;;;;;;;;5057027;28;20197;-81
2023/02/05 14:41:50;;;;;;;2.53;2.33;;;;;;;;;;5070909;28;20208;-80
2023/02/05 14:44:20;;;;;;;2.77;2.57;;;;;;;;;;5057479;28;20228;-81
2023/02/05 14:46:57;;;;;;;3.47;2.67;;;;;;;;;;5071025;28;20288;-80
2023/02/05 14:49:26;;;;;;;2.67;1.97;;;;;;;;;;5070874;28;20702;-80
2023/02/05 14:51:59;;;;;;;3.03;2.20;;;;;;;;;;5058423;28;20225;-81
2023/02/05 14:54:27;;;;;;;2.13;1.97;;;;;;;;;;5075095;28;20205;-81
2023/02/05 14:57:09;;;;;;;2.10;1.90;;;;;;;;;;5074875;28;20273;-81
2023/02/05 14:59:42;;;;;;;3.40;3.10;;;;;;;;;;5074796;28;20205;-81
2023/02/05 15:02:42;;;;;;;2.57;2.10;;;;;;;;;;5042301;28;20206;-82
2023/02/05 15:05:16;;;;;;;1.90;1.80;;;;;;;;;;5073296;28;20715;-81
2023/02/05 15:07:44;;;;;;;1.83;1.73;;;;;;;;;;5074564;28;20205;-82
2023/02/05 15:10:15;;;;;;;2.00;1.70;;;;;;;;;;5054712;28;20232;-82
2023/02/05 15:12:57;;;;;;;3.33;2.03;;;;;;;;;;5049178;28;20220;-81
2023/02/05 15:15:31;;;;;;;2.20;2.00;;;;;;;;;;5059253;28;20255;-82
2023/02/05 15:18:04;;;;;;;2.63;2.17;;;;;;;;;;5055427;28;20631;-83